Time;durP1;ratioP1;P1;durP2;ratioP2;P2;SDS_P1;SDS_P2;PMS_P1;PMS_P2;Temp;Humidity;BMP_temperature;BMP_pressure;BME280_temperature;BME280_humidity;BME280_pressure;Samples;Min_cycle;Max_cycle;Signal;HPM_P1;HPM_P2
2020/12/04 00:04:55;;;;;;;27.13;15.15;;;;;;;1.85;71.22;99254.19;10069564;28;20047;-79
2020/12/04 00:09:51;;;;;;;28.27;15.38;;;;;;;1.84;70.95;99241.84;10091774;28;20538;-78
2020/12/04 00:14:47;;;;;;;24.70;14.07;;;;;;;1.80;71.13;99230.03;10083863;28;20054;-80
2020/12/04 00:19:43;;;;;;;30.33;15.23;;;;;;;1.74;70.71;99247.41;10084568;28;20070;-80
2020/12/04 00:24:39;;;;;;;26.83;14.82;;;;;;;1.75;70.36;99243.59;10089264;28;20811;-81
2020/12/04 00:29:35;;;;;;;24.90;14.48;;;;;;;1.78;70.37;99243.00;10111920;28;20038;-80
2020/12/04 00:34:31;;;;;;;24.75;13.93;;;;;;;1.74;70.08;99233.94;10082780;28;20106;-80
2020/12/04 00:39:27;;;;;;;26.88;15.32;;;;;;;1.84;70.41;99220.28;10077393;28;20057;-80
2020/12/04 00:44:24;;;;;;;26.80;15.23;;;;;;;1.74;70.65;99225.03;10079688;28;20133;-81
2020/12/04 00:49:20;;;;;;;25.90;15.55;;;;;;;1.71;70.14;99226.41;10098593;28;20097;-80
2020/12/04 00:54:17;;;;;;;28.30;15.23;;;;;;;1.65;69.85;99219.53;10091550;28;20046;-80
2020/12/04 00:59:13;;;;;;;28.40;14.95;;;;;;;1.56;70.15;99213.22;10090529;28;20051;-80
2020/12/04 01:04:09;;;;;;;26.83;14.98;;;;;;;1.43;70.24;99215.56;10088093;28;20796;-79
2020/12/04 01:09:06;;;;;;;26.73;14.75;;;;;;;1.56;69.31;99219.41;10096169;28;20102;-80
2020/12/04 01:14:03;;;;;;;23.48;13.35;;;;;;;1.54;69.41;99204.63;10086086;28;20056;-79
2020/12/04 01:18:59;;;;;;;22.58;13.88;;;;;;;1.50;69.33;99209.78;10096017;28;20138;-79
2020/12/04 01:23:55;;;;;;;24.65;14.50;;;;;;;1.45;69.15;99189.13;10090489;28;20121;-80
2020/12/04 01:28:51;;;;;;;24.77;13.35;;;;;;;1.36;68.81;99188.19;10088808;28;20045;-80
2020/12/04 01:33:47;;;;;;;25.70;14.80;;;;;;;1.45;69.11;99180.25;10089434;28;20506;-80
2020/12/04 01:38:43;;;;;;;24.67;14.20;;;;;;;1.35;68.73;99165.06;10094197;28;20395;-80
2020/12/04 01:43:39;;;;;;;27.17;14.27;;;;;;;1.38;68.36;99159.09;10091500;28;20073;-81
2020/12/04 01:48:36;;;;;;;25.15;13.52;;;;;;;1.29;68.30;99147.38;10104163;28;20129;-81
2020/12/04 01:53:33;;;;;;;25.83;12.93;;;;;;;1.13;68.37;99140.66;10090924;28;20086;-80
2020/12/04 01:58:29;;;;;;;25.92;13.68;;;;;;;1.08;67.86;99159.56;10106287;28;20062;-80
2020/12/04 02:03:25;;;;;;;23.48;13.25;;;;;;;1.21;67.00;99153.47;10086193;28;20154;-81
2020/12/04 02:08:29;;;;;;;26.20;14.18;;;;;;;1.12;67.25;99149.84;10082097;28;20452;-79
2020/12/04 02:13:27;;;;;;;27.05;14.75;;;;;;;1.06;67.61;99146.41;10076835;28;20515;-80
2020/12/04 02:18:24;;;;;;;26.42;13.63;;;;;;;0.98;67.44;99139.81;10085447;28;20491;-80
2020/12/04 02:23:20;;;;;;;26.88;14.40;;;;;;;0.88;67.31;99142.63;10107095;28;20149;-80
2020/12/04 02:28:16;;;;;;;25.85;13.75;;;;;;;0.89;67.40;99122.72;10075989;28;20058;-80
2020/12/04 02:33:16;;;;;;;30.33;16.23;;;;;;;0.90;67.60;99121.59;10074663;28;20083;-80
2020/12/04 02:38:12;;;;;;;28.38;14.88;;;;;;;0.93;67.19;99112.97;10086009;28;20070;-80
2020/12/04 02:43:08;;;;;;;28.50;15.18;;;;;;;0.80;67.49;99095.66;10080131;28;20051;-80
2020/12/04 02:48:05;;;;;;;27.98;15.40;;;;;;;0.73;67.89;99092.53;10102796;28;20177;-80
2020/12/04 02:53:01;;;;;;;29.48;15.55;;;;;;;0.82;67.74;99081.94;10118561;28;20055;-80
2020/12/04 02:57:57;;;;;;;29.77;14.65;;;;;;;0.76;68.26;99083.09;10091520;28;20065;-80
2020/12/04 03:02:53;;;;;;;31.35;15.85;;;;;;;0.78;68.15;99080.91;10115269;28;20074;-80
2020/12/04 03:07:50;;;;;;;30.70;16.25;;;;;;;0.60;68.38;99075.25;10083354;28;20083;-79
2020/12/04 03:12:46;;;;;;;29.73;15.27;;;;;;;0.69;67.96;99074.59;10085109;28;20138;-79
2020/12/04 03:17:42;;;;;;;32.80;15.38;;;;;;;0.62;68.00;99062.28;10092031;28;20423;-80
2020/12/04 03:22:38;;;;;;;32.63;16.20;;;;;;;0.63;68.62;99053.16;10090553;28;20074;-81
2020/12/04 03:27:34;;;;;;;30.02;16.50;;;;;;;0.57;68.23;99043.56;10071415;28;20050;-79
2020/12/04 03:32:31;;;;;;;29.70;15.90;;;;;;;0.46;68.46;99044.78;10076465;28;20054;-79
2020/12/04 03:37:27;;;;;;;30.05;15.30;;;;;;;0.54;68.20;99051.44;10084780;28;20066;-80
2020/12/04 03:42:24;;;;;;;29.95;15.95;;;;;;;0.43;69.17;99042.69;10080553;28;20051;-79
2020/12/04 03:47:20;;;;;;;31.65;17.15;;;;;;;0.53;68.64;99033.66;10079936;28;20141;-80
2020/12/04 03:52:20;;;;;;;29.88;14.95;;;;;;;0.43;69.00;99021.19;10092045;28;20435;-78
2020/12/04 03:57:16;;;;;;;29.33;15.30;;;;;;;0.41;68.37;99034.13;10090893;28;20057;-80
2020/12/04 04:02:12;;;;;;;31.30;14.85;;;;;;;0.36;69.00;99020.75;10085800;28;20043;-79
2020/12/04 04:07:08;;;;;;;29.35;15.15;;;;;;;0.45;69.12;99019.00;10086300;28;20055;-81
2020/12/04 04:12:04;;;;;;;30.98;15.68;;;;;;;0.36;69.30;99010.00;10086838;28;20157;-80
2020/12/04 04:17:00;;;;;;;31.10;16.13;;;;;;;0.38;68.91;99013.19;10092969;28;20479;-80
2020/12/04 04:21:57;;;;;;;28.70;14.98;;;;;;;0.29;68.80;99004.19;10089869;28;20051;-80
2020/12/04 04:26:54;;;;;;;28.80;14.82;;;;;;;0.48;68.76;98996.09;10094047;28;20137;-78
2020/12/04 04:31:51;;;;;;;28.13;14.93;;;;;;;0.54;68.50;98995.75;10086598;28;20114;-79
2020/12/04 04:36:47;;;;;;;28.75;15.00;;;;;;;0.43;68.86;98978.16;10102660;28;20066;-79
2020/12/04 04:41:44;;;;;;;29.85;15.15;;;;;;;0.40;68.67;98978.75;10089522;28;20057;-79
2020/12/04 04:46:48;;;;;;;26.35;14.52;;;;;;;0.55;68.62;98978.50;10085322;28;20054;-79
2020/12/04 04:51:45;;;;;;;23.33;13.35;;;;;;;0.63;67.95;98983.22;10087165;28;20047;-79
2020/12/04 04:56:47;;;;;;;29.55;15.77;;;;;;;0.61;67.96;98963.88;10090219;28;20109;-79
2020/12/04 05:01:45;;;;;;;28.63;14.35;;;;;;;0.54;68.27;98958.09;10084789;28;20061;-79
2020/12/04 05:06:41;;;;;;;24.17;14.05;;;;;;;0.69;68.09;98969.69;10097335;28;20067;-79
2020/12/04 05:11:38;;;;;;;27.52;14.65;;;;;;;0.65;68.15;98955.22;10078387;28;20150;-79
2020/12/04 05:16:35;;;;;;;26.15;14.98;;;;;;;0.63;68.22;98955.53;10088384;28;20210;-80
2020/12/04 05:21:33;;;;;;;27.25;14.80;;;;;;;0.71;67.91;98956.75;10087457;28;20055;-79
2020/12/04 05:26:35;;;;;;;28.20;15.10;;;;;;;0.63;68.00;98977.84;10092674;28;20050;-80
2020/12/04 05:31:34;;;;;;;27.63;13.75;;;;;;;0.62;68.04;98984.28;10092680;28;20049;-80
2020/12/04 05:36:31;;;;;;;27.40;14.90;;;;;;;0.71;68.22;98945.97;10093586;28;20050;-81
2020/12/04 05:41:28;;;;;;;29.17;14.70;;;;;;;0.70;67.77;98955.16;10101327;28;20055;-80
2020/12/04 05:46:25;;;;;;;27.95;14.90;;;;;;;0.77;67.94;98950.97;10100915;28;20731;-81
2020/12/04 05:51:51;;;;;;;30.00;15.85;;;;;;;0.81;67.93;98951.16;10089741;28;20155;-77
2020/12/04 05:56:55;;;;;;;29.92;16.17;;;;;;;0.77;69.00;98939.41;10098297;28;20484;-77
2020/12/04 06:01:51;;;;;;;33.75;16.27;;;;;;;0.85;68.77;98933.34;10083891;28;20058;-76
2020/12/04 06:06:49;;;;;;;31.83;17.40;;;;;;;0.76;69.52;98924.34;10099566;28;20047;-76
2020/12/04 06:11:46;;;;;;;37.08;18.27;;;;;;;0.58;70.29;98944.84;10091548;28;20049;-81
2020/12/04 06:16:44;;;;;;;32.35;17.60;;;;;;;0.58;70.15;98948.34;10090315;28;20086;-82
2020/12/04 06:21:46;;;;;;;33.30;17.30;;;;;;;0.81;69.80;98951.16;10093900;28;20055;-82
2020/12/04 06:26:49;;;;;;;31.60;16.27;;;;;;;0.62;70.89;98938.56;10099780;28;20058;-82
2020/12/04 06:31:46;;;;;;;31.52;16.95;;;;;;;0.80;69.97;98944.19;10091719;28;20054;-84
2020/12/04 06:36:44;;;;;;;37.45;17.85;;;;;;;0.70;69.92;98939.00;10085968;28;20117;-83
2020/12/04 06:41:45;;;;;;;34.13;17.40;;;;;;;0.93;69.57;98943.44;10108744;28;20053;-83
2020/12/04 06:46:46;;;;;;;34.00;17.85;;;;;;;0.93;69.61;98931.84;10092048;28;20069;-81
2020/12/04 06:52:13;;;;;;;34.05;18.50;;;;;;;0.85;70.87;98941.41;10093503;28;20055;-82
2020/12/04 06:57:09;;;;;;;34.13;18.90;;;;;;;0.93;70.46;98946.13;10103288;28;20474;-79
2020/12/04 07:08:03;;;;;;;35.28;18.50;;;;;;;0.84;72.06;98955.97;10048261;28;20077;-80
2020/12/04 07:13:04;;;;;;;34.78;17.85;;;;;;;0.90;71.24;98964.75;10100084;28;20046;-82
2020/12/04 07:18:00;;;;;;;38.08;18.98;;;;;;;1.04;70.77;98965.56;10095551;28;20133;-82
2020/12/04 07:22:56;;;;;;;40.85;19.80;;;;;;;1.00;70.65;98965.38;10096805;28;20570;-82
2020/12/04 07:27:54;;;;;;;37.03;19.13;;;;;;;0.96;70.97;98964.34;10082295;28;20051;-82
2020/12/04 07:32:51;;;;;;;38.78;20.17;;;;;;;0.87;71.14;98974.22;10074767;28;20047;-82
2020/12/04 07:37:48;;;;;;;35.38;18.83;;;;;;;1.02;71.09;98982.03;10084563;28;20543;-81
2020/12/04 07:42:45;;;;;;;37.75;19.20;;;;;;;1.04;70.50;98981.72;10094773;28;20050;-82
2020/12/04 07:47:44;;;;;;;39.70;20.15;;;;;;;1.12;70.44;98982.94;10083359;28;20042;-83
2020/12/04 07:52:51;;;;;;;35.63;18.83;;;;;;;1.09;70.05;98978.13;10079613;28;20083;-80
2020/12/04 07:58:19;;;;;;;38.08;20.50;;;;;;;1.01;70.60;98982.31;10090565;28;20121;-82
2020/12/04 08:03:16;;;;;;;35.85;18.48;;;;;;;0.88;70.56;98959.66;10088003;28;20515;-82
2020/12/04 08:08:18;;;;;;;36.35;18.98;;;;;;;1.00;71.04;98968.06;10067160;28;20102;-80
2020/12/04 08:13:15;;;;;;;36.67;19.75;;;;;;;1.02;70.15;98984.72;10098555;28;20050;-81
2020/12/04 08:18:12;;;;;;;33.67;18.50;;;;;;;1.05;70.02;98973.34;10088373;28;20455;-80
2020/12/04 08:23:08;;;;;;;35.63;17.77;;;;;;;0.93;70.11;98980.28;10087412;28;20058;-83
2020/12/04 08:28:05;;;;;;;39.42;19.38;;;;;;;0.95;70.14;98984.31;10084051;28;20046;-79
2020/12/04 08:33:26;;;;;;;36.38;18.48;;;;;;;1.10;69.84;98996.69;10092359;28;20047;-80
2020/12/04 08:38:26;;;;;;;32.80;17.27;;;;;;;1.07;69.74;98991.06;10101690;28;20046;-83
2020/12/04 08:43:24;;;;;;;33.17;18.55;;;;;;;1.08;69.66;98992.69;10089662;28;20506;-82
2020/12/04 08:48:25;;;;;;;35.20;16.88;;;;;;;1.25;69.56;98991.03;10093661;28;20150;-83
2020/12/04 08:53:24;;;;;;;36.28;18.30;;;;;;;1.26;69.23;98989.91;10085645;28;20090;-82
2020/12/04 08:58:23;;;;;;;34.13;17.80;;;;;;;1.30;69.58;98992.81;10098885;28;20509;-83
2020/12/04 09:03:21;;;;;;;34.22;17.77;;;;;;;1.23;68.88;99005.84;10109309;28;20054;-83
2020/12/04 09:08:17;;;;;;;31.42;15.48;;;;;;;1.44;69.22;99017.06;10088881;28;20042;-80
2020/12/04 09:13:13;;;;;;;35.42;17.35;;;;;;;1.47;68.58;99017.25;10101341;28;20051;-81
2020/12/04 09:18:11;;;;;;;33.00;18.38;;;;;;;1.60;68.55;99020.25;10086322;28;20057;-79
2020/12/04 09:23:07;;;;;;;30.65;16.80;;;;;;;1.55;68.75;99023.81;10095602;28;20078;-82
2020/12/04 09:28:05;;;;;;;34.25;15.93;;;;;;;1.46;69.23;99026.44;10098696;28;20073;-82
2020/12/04 09:33:03;;;;;;;35.78;16.33;;;;;;;1.70;68.57;99028.13;10086271;28;21318;-82
2020/12/04 09:38:00;;;;;;;32.72;17.42;;;;;;;1.79;69.41;99034.41;10086738;28;20047;-81
2020/12/04 09:42:57;;;;;;;36.20;17.92;;;;;;;1.87;69.26;99033.69;10097885;28;20511;-81
2020/12/04 09:47:53;;;;;;;30.55;16.13;;;;;;;1.87;68.64;99036.41;10108809;28;20070;-85
2020/12/04 09:52:50;;;;;;;32.35;16.90;;;;;;;2.00;68.09;99034.00;10088795;28;20076;-84
2020/12/04 09:57:47;;;;;;;30.48;16.80;;;;;;;1.99;67.35;99043.19;10092959;28;20051;-83
2020/12/04 10:02:43;;;;;;;37.63;17.75;;;;;;;2.02;68.15;99029.91;10083187;28;20059;-77
2020/12/04 10:07:47;;;;;;;35.60;17.83;;;;;;;1.95;68.27;99031.38;10099479;28;20050;-78
2020/12/04 10:12:43;;;;;;;33.47;16.87;;;;;;;2.03;67.64;99036.88;10095515;28;20054;-77
2020/12/04 10:17:39;;;;;;;35.50;17.98;;;;;;;1.95;68.47;99036.78;10094650;28;20053;-78
2020/12/04 10:22:39;;;;;;;28.65;16.25;;;;;;;2.05;67.87;99036.59;10096304;28;20054;-83
2020/12/04 10:27:36;;;;;;;32.75;17.08;;;;;;;2.08;67.95;99035.97;10110793;28;20074;-81
2020/12/04 10:32:32;;;;;;;32.47;17.13;;;;;;;2.07;67.37;99035.19;10100126;28;20101;-83
2020/12/04 10:37:28;;;;;;;32.95;17.52;;;;;;;2.11;68.17;99024.56;10098748;28;20621;-84
2020/12/04 10:42:35;;;;;;;37.08;18.08;;;;;;;2.21;68.05;99029.75;10102077;28;20051;-79
2020/12/04 10:47:33;;;;;;;31.33;16.75;;;;;;;2.26;68.60;99010.75;10105204;28;20057;-80
2020/12/04 10:52:33;;;;;;;33.42;17.92;;;;;;;2.39;67.57;99019.09;10095861;28;20055;-81
2020/12/04 10:57:30;;;;;;;32.70;17.55;;;;;;;2.19;68.14;99009.59;10097409;28;20141;-86
2020/12/04 11:02:31;;;;;;;35.25;19.15;;;;;;;2.28;68.56;99013.97;10103553;28;20053;-83
2020/12/04 11:07:27;;;;;;;32.88;17.42;;;;;;;2.51;68.45;99000.50;10095192;28;20113;-82
2020/12/04 11:12:28;;;;;;;30.80;16.70;;;;;;;2.61;67.89;99016.44;10112512;28;20090;-79
2020/12/04 11:17:24;;;;;;;30.13;16.13;;;;;;;2.52;68.26;99013.66;10095369;28;20146;-81
2020/12/04 11:22:20;;;;;;;34.70;19.13;;;;;;;2.71;68.08;99005.38;10094824;28;20431;-83
2020/12/04 11:27:17;;;;;;;32.53;18.35;;;;;;;2.70;68.31;99003.81;10090430;28;20134;-83
2020/12/04 11:32:14;;;;;;;34.70;17.85;;;;;;;2.82;68.47;99013.25;10089864;28;20157;-80
2020/12/04 11:37:11;;;;;;;31.20;17.02;;;;;;;2.88;68.14;99014.72;10092169;28;20047;-82
2020/12/04 11:42:09;;;;;;;31.77;17.27;;;;;;;2.97;67.66;99002.06;10094640;28;20134;-84
2020/12/04 11:47:05;;;;;;;35.22;18.17;;;;;;;3.07;67.54;99015.31;10095718;28;20403;-81
2020/12/04 11:52:01;;;;;;;31.73;17.25;;;;;;;3.29;66.92;99024.47;10085007;28;20134;-82
2020/12/04 11:56:59;;;;;;;32.67;17.45;;;;;;;3.33;66.36;99017.34;10117334;28;20064;-82
2020/12/04 12:01:56;;;;;;;33.03;17.33;;;;;;;3.56;66.25;99013.44;10102209;28;20478;-82
2020/12/04 12:06:54;;;;;;;32.47;16.95;;;;;;;3.62;65.78;99038.44;10103527;28;20050;-82
2020/12/04 12:11:50;;;;;;;33.30;17.05;;;;;;;3.41;66.36;99051.69;10104513;28;20403;-81
2020/12/04 12:16:47;;;;;;;31.48;17.33;;;;;;;3.47;66.27;99042.34;10089680;28;20074;-81
2020/12/04 12:21:47;;;;;;;32.05;17.15;;;;;;;3.48;66.46;99054.78;10103960;28;20133;-81
2020/12/04 12:26:52;;;;;;;29.80;16.92;;;;;;;3.36;66.73;99051.81;10116014;28;20517;-81
2020/12/04 12:32:18;;;;;;;31.30;16.98;;;;;;;3.54;65.67;99056.22;10080976;28;20047;-83
2020/12/04 12:37:15;;;;;;;30.13;17.25;;;;;;;3.64;65.18;99046.22;10126572;28;20140;-82
2020/12/04 12:42:15;;;;;;;30.40;17.27;;;;;;;3.55;65.89;99057.00;10101933;28;20492;-83
2020/12/04 12:48:01;;;;;;;33.25;18.15;;;;;;;3.68;65.59;99053.41;10086378;28;20139;-81
2020/12/04 12:53:03;;;;;;;32.05;18.45;;;;;;;4.16;64.79;99057.22;10102412;28;20105;-79
2020/12/04 13:04:17;;;;;;;30.95;18.13;;;;;;;4.57;62.51;99055.97;10094214;28;20075;-77
2020/12/04 13:09:23;;;;;;;29.98;17.27;;;;;;;4.27;63.04;99061.22;10106415;28;20487;-77
2020/12/04 13:14:28;;;;;;;29.70;16.10;;;;;;;3.82;64.09;99069.50;10101387;28;20499;-77
2020/12/04 13:19:24;;;;;;;30.50;17.00;;;;;;;3.76;64.99;99070.75;10120092;28;20075;-81
2020/12/04 13:24:32;;;;;;;28.20;16.20;;;;;;;3.53;64.97;99057.31;10123095;28;20046;-82
2020/12/04 13:29:29;;;;;;;30.30;17.33;;;;;;;3.57;65.40;99062.88;10100687;28;20512;-80
2020/12/04 13:34:28;;;;;;;28.83;17.23;;;;;;;3.46;66.00;99061.56;10125800;28;20619;-82
2020/12/04 13:39:34;;;;;;;31.60;16.80;;;;;;;3.47;66.06;99055.06;10110850;28;20038;-83
2020/12/04 13:44:30;;;;;;;27.70;15.98;;;;;;;3.49;66.39;99060.97;10108548;28;20502;-84
2020/12/04 13:50:36;;;;;;;28.13;15.95;;;;;;;3.48;66.16;99076.38;10097987;28;20129;-85
2020/12/04 13:55:42;;;;;;;27.52;15.45;;;;;;;3.54;66.21;99041.91;9911723;29;20054;-82
2020/12/04 14:00:39;;;;;;;33.35;17.55;;;;;;;3.42;67.18;99049.81;10075730;28;20055;-82
2020/12/04 14:05:41;;;;;;;30.48;16.45;;;;;;;3.38;66.39;99050.41;10106580;28;20047;-81
2020/12/04 14:10:41;;;;;;;29.67;15.90;;;;;;;3.51;66.88;99043.31;10105428;28;20567;-82
2020/12/04 14:15:45;;;;;;;31.92;16.85;;;;;;;3.53;67.01;99057.31;10108029;28;20163;-81
2020/12/04 14:20:42;;;;;;;28.98;15.82;;;;;;;3.50;66.84;99052.53;10096273;28;20577;-81
2020/12/04 14:25:39;;;;;;;30.45;15.90;;;;;;;3.48;66.74;99065.56;10102783;28;20065;-79
2020/12/04 14:30:36;;;;;;;30.30;17.23;;;;;;;3.34;67.99;99072.94;10107201;28;20097;-81
2020/12/04 14:35:32;;;;;;;30.00;16.58;;;;;;;3.21;67.66;99071.16;10117277;28;20392;-82
2020/12/04 14:40:30;;;;;;;31.35;16.75;;;;;;;3.10;68.69;99071.38;10121691;28;20149;-81
2020/12/04 14:45:26;;;;;;;33.30;17.63;;;;;;;3.03;68.77;99064.84;10091610;28;20054;-83
2020/12/04 14:50:23;;;;;;;30.98;16.65;;;;;;;2.97;69.54;99069.56;10105431;28;20476;-83
2020/12/04 14:55:40;;;;;;;31.30;16.75;;;;;;;2.77;69.84;99068.16;10108008;28;20054;-84
2020/12/04 15:00:36;;;;;;;31.55;15.75;;;;;;;2.98;69.29;99095.47;10120139;28;20053;-84
2020/12/04 15:05:36;;;;;;;35.83;17.77;;;;;;;2.62;70.05;99099.00;10109462;28;20196;-84
2020/12/04 15:10:51;;;;;;;32.67;17.23;;;;;;;2.55;70.72;99098.59;10097051;28;20093;-84
2020/12/04 15:15:55;;;;;;;30.02;16.23;;;;;;;2.68;69.78;99102.38;10100506;28;20049;-83
2020/12/04 15:20:51;;;;;;;30.95;16.85;;;;;;;2.59;69.77;99114.97;10104353;28;20062;-81
2020/12/04 15:25:49;;;;;;;30.85;16.48;;;;;;;2.59;69.87;99129.28;10102052;28;20675;-82
2020/12/04 15:30:47;;;;;;;33.03;17.13;;;;;;;2.39;70.31;99154.81;10103617;28;20077;-82
2020/12/04 15:35:44;;;;;;;28.60;15.93;;;;;;;2.40;70.32;99155.59;10097586;28;20047;-81
2020/12/04 15:40:41;;;;;;;31.70;15.75;;;;;;;2.29;70.69;99161.19;10121515;28;20551;-82
2020/12/04 15:45:37;;;;;;;29.70;16.42;;;;;;;2.16;71.42;99162.00;10103121;28;20079;-82
2020/12/04 15:50:33;;;;;;;28.80;16.98;;;;;;;2.30;70.54;99176.28;10104031;28;20154;-81
2020/12/04 15:55:29;;;;;;;31.13;16.55;;;;;;;2.24;70.70;99185.56;10111252;28;20142;-82
2020/12/04 16:00:26;;;;;;;32.50;16.55;;;;;;;2.03;71.05;99201.31;10104607;28;20053;-83
2020/12/04 16:05:22;;;;;;;29.80;16.60;;;;;;;2.09;71.34;99215.53;10112787;28;20050;-84
2020/12/04 16:10:18;;;;;;;33.13;17.38;;;;;;;1.95;71.51;99230.88;10088670;28;20043;-82
2020/12/04 16:15:14;;;;;;;30.77;16.25;;;;;;;2.16;70.79;99237.50;10116382;28;20106;-81
2020/12/04 16:20:10;;;;;;;31.40;17.45;;;;;;;2.03;71.59;99232.88;10100123;28;20436;-83
2020/12/04 16:25:07;;;;;;;30.88;16.20;;;;;;;2.06;71.03;99232.28;10093823;28;20130;-81
2020/12/04 16:30:08;;;;;;;31.00;16.98;;;;;;;2.08;71.82;99232.78;10072063;28;20046;-82
2020/12/04 16:35:05;;;;;;;29.48;16.02;;;;;;;1.99;71.65;99242.66;10099428;28;20105;-83
2020/12/04 16:40:03;;;;;;;30.25;15.32;;;;;;;1.87;72.28;99257.41;10093222;28;20109;-84
2020/12/04 16:44:59;;;;;;;32.38;17.58;;;;;;;1.97;72.15;99252.94;10096197;28;20047;-84
2020/12/04 16:49:57;;;;;;;32.80;16.58;;;;;;;2.09;71.46;99264.06;10092114;28;20054;-83
2020/12/04 16:54:54;;;;;;;28.70;15.65;;;;;;;2.06;71.13;99268.13;10103109;28;20054;-85
2020/12/04 16:59:51;;;;;;;32.83;16.58;;;;;;;2.12;71.46;99268.06;10099457;28;20043;-82
2020/12/04 17:04:47;;;;;;;30.55;16.30;;;;;;;1.98;72.26;99268.81;10096724;28;20051;-80
2020/12/04 17:09:43;;;;;;;29.23;16.42;;;;;;;1.90;72.77;99256.00;10108659;28;20056;-81
2020/12/04 17:14:39;;;;;;;32.65;16.52;;;;;;;2.02;72.36;99275.22;10108411;28;20395;-79
2020/12/04 17:19:36;;;;;;;30.77;16.77;;;;;;;2.02;72.42;99285.19;10104153;28;20042;-79
2020/12/04 17:24:32;;;;;;;30.17;16.25;;;;;;;2.08;72.49;99290.19;10102396;28;20503;-79
2020/12/04 17:29:28;;;;;;;27.63;14.88;;;;;;;2.18;71.81;99294.63;10095579;28;20385;-79
2020/12/04 17:34:27;;;;;;;30.95;15.50;;;;;;;2.12;72.44;99295.81;10107084;28;20089;-79
2020/12/04 17:39:23;;;;;;;30.67;15.85;;;;;;;2.28;72.10;99304.44;10088508;28;20051;-83
2020/12/04 17:44:22;;;;;;;27.60;15.88;;;;;;;2.54;71.40;99323.66;10115951;28;20125;-81
2020/12/04 17:49:19;;;;;;;29.50;16.75;;;;;;;2.66;71.03;99332.06;10091554;28;20054;-82
2020/12/04 17:54:16;;;;;;;32.53;17.20;;;;;;;2.71;72.17;99329.25;10097820;28;20105;-82
2020/12/04 17:59:15;;;;;;;28.30;15.98;;;;;;;2.69;71.78;99331.47;10104470;28;20050;-82
2020/12/04 18:04:29;;;;;;;31.20;16.63;;;;;;;2.70;70.89;99327.66;10110501;28;20380;-84
2020/12/04 18:09:30;;;;;;;28.00;15.20;;;;;;;2.88;70.79;99334.06;10094022;28;20075;-78
2020/12/04 18:14:26;;;;;;;29.45;15.90;;;;;;;3.01;70.55;99337.84;10095311;28;20055;-77
2020/12/04 18:19:23;;;;;;;25.10;14.63;;;;;;;3.10;68.99;99341.44;10101806;28;20078;-77
2020/12/04 18:24:19;;;;;;;29.88;16.45;;;;;;;3.14;69.40;99358.66;10098252;28;20134;-76
2020/12/04 18:29:17;;;;;;;26.23;14.85;;;;;;;3.20;68.89;99361.25;10089156;28;20498;-78
2020/12/04 18:34:14;;;;;;;26.20;14.52;;;;;;;3.21;70.01;99360.94;10099824;28;20125;-79
2020/12/04 18:39:11;;;;;;;26.65;15.15;;;;;;;3.17;70.13;99362.66;10091332;28;20070;-79
2020/12/04 18:44:11;;;;;;;25.13;13.48;;;;;;;3.08;69.33;99359.84;10096550;28;20133;-79
2020/12/04 18:49:07;;;;;;;26.40;14.65;;;;;;;3.23;69.32;99366.06;10091589;28;20092;-78
2020/12/04 18:54:03;;;;;;;27.92;15.93;;;;;;;3.25;70.26;99363.84;10101193;28;20046;-78
2020/12/04 18:59:04;;;;;;;30.00;16.00;;;;;;;3.28;70.09;99368.66;10104807;28;20095;-79
2020/12/04 19:04:01;;;;;;;26.55;15.27;;;;;;;3.10;70.07;99379.25;10094631;28;20050;-77
2020/12/04 19:08:58;;;;;;;27.92;16.23;;;;;;;3.16;69.54;99390.78;10091865;28;20130;-77
2020/12/04 19:13:54;;;;;;;28.02;16.52;;;;;;;3.23;69.48;99393.06;10090876;28;20051;-78
2020/12/04 19:18:51;;;;;;;28.65;14.95;;;;;;;3.34;69.08;99402.53;10094022;28;20494;-78
2020/12/04 19:23:49;;;;;;;28.80;15.98;;;;;;;3.31;69.25;99405.88;10110488;28;20049;-78
2020/12/04 19:28:45;;;;;;;27.10;16.48;;;;;;;3.25;69.57;99396.25;10077531;28;20047;-78
2020/12/04 19:33:41;;;;;;;28.55;15.00;;;;;;;3.26;69.36;99395.16;10101111;28;20058;-79
2020/12/04 19:38:38;;;;;;;30.60;15.35;;;;;;;3.20;69.29;99393.66;10104868;28;20097;-79
2020/12/04 19:43:34;;;;;;;25.92;15.27;;;;;;;3.40;69.72;99397.84;10119908;28;20063;-79
2020/12/04 19:48:31;;;;;;;28.88;15.55;;;;;;;3.25;70.03;99396.25;10103338;28;20069;-79
2020/12/04 19:53:29;;;;;;;26.85;15.35;;;;;;;3.38;70.02;99411.66;10105894;28;20050;-79
2020/12/04 19:58:25;;;;;;;28.70;17.73;;;;;;;3.50;69.05;99424.66;10105984;28;20055;-79
2020/12/04 20:03:23;;;;;;;32.30;17.52;;;;;;;3.44;68.64;99434.78;10103141;28;20082;-78
2020/12/04 20:08:19;;;;;;;28.05;15.23;;;;;;;3.38;68.80;99420.56;10116704;28;20046;-80
2020/12/04 20:13:15;;;;;;;26.73;15.75;;;;;;;3.20;69.27;99409.88;10100944;28;20063;-83
2020/12/04 20:18:13;;;;;;;27.00;14.32;;;;;;;3.29;69.06;99408.06;10099680;28;20483;-82
2020/12/04 20:23:10;;;;;;;26.70;15.68;;;;;;;3.26;69.65;99409.47;10083882;28;20058;-82
2020/12/04 20:28:06;;;;;;;24.63;15.20;;;;;;;3.19;69.03;99403.66;10098396;28;20050;-82
2020/12/04 20:33:03;;;;;;;25.67;14.63;;;;;;;3.27;69.67;99421.06;10094725;28;20078;-82
2020/12/04 20:38:00;;;;;;;25.75;15.73;;;;;;;3.19;70.16;99440.69;10098478;28;20078;-83
2020/12/04 20:42:56;;;;;;;29.50;16.38;;;;;;;3.21;69.97;99438.50;10091792;28;20495;-78
2020/12/04 20:47:53;;;;;;;33.58;17.60;;;;;;;3.16;70.50;99442.88;10085221;28;20114;-80
2020/12/04 20:52:50;;;;;;;26.40;15.10;;;;;;;3.13;71.08;99442.66;10086282;28;20055;-79
2020/12/04 20:57:46;;;;;;;25.38;15.02;;;;;;;2.93;71.07;99441.16;10095843;28;20070;-78
2020/12/04 21:02:42;;;;;;;29.05;17.05;;;;;;;3.15;70.73;99435.06;10092695;28;20046;-79
2020/12/04 21:07:38;;;;;;;27.48;16.17;;;;;;;3.21;71.04;99433.09;10092963;28;20657;-78
2020/12/04 21:12:34;;;;;;;26.48;16.40;;;;;;;3.28;70.94;99430.78;10091513;28;20051;-78
2020/12/04 21:17:31;;;;;;;25.70;15.80;;;;;;;3.25;71.26;99447.56;10101152;28;20066;-78
2020/12/04 21:22:27;;;;;;;26.88;16.05;;;;;;;3.32;71.03;99456.09;10089743;28;20104;-80
2020/12/04 21:27:39;;;;;;;27.67;16.48;;;;;;;3.26;71.31;99458.09;10090003;28;20054;-84
2020/12/04 21:32:38;;;;;;;29.88;17.35;;;;;;;3.37;70.65;99456.00;10109836;28;20060;-83
2020/12/04 21:37:34;;;;;;;24.70;15.90;;;;;;;3.39;70.88;99467.31;10096267;28;20422;-83
2020/12/04 21:42:32;;;;;;;28.85;16.65;;;;;;;3.22;71.07;99481.41;10100802;28;20050;-84
2020/12/04 21:47:28;;;;;;;24.60;16.00;;;;;;;3.30;70.79;99478.00;10096152;28;20588;-80
2020/12/04 21:52:25;;;;;;;30.08;16.90;;;;;;;3.05;72.17;99465.78;10097377;28;20058;-81
2020/12/04 21:57:21;;;;;;;25.40;16.02;;;;;;;3.18;71.61;99434.50;10101339;28;20595;-83
2020/12/04 22:02:18;;;;;;;28.67;17.48;;;;;;;3.23;71.88;99393.06;10091532;28;20051;-80
2020/12/04 22:07:14;;;;;;;25.98;17.23;;;;;;;3.30;71.48;99355.66;10099097;28;20047;-82
2020/12/04 22:12:10;;;;;;;26.85;18.25;;;;;;;3.31;71.38;99330.22;10107555;28;20055;-80
2020/12/04 22:17:06;;;;;;;27.80;17.58;;;;;;;3.32;71.54;99321.03;10092907;28;20077;-80
2020/12/04 22:22:03;;;;;;;27.88;17.55;;;;;;;3.28;71.54;99320.03;10108862;28;20046;-80
2020/12/04 22:26:59;;;;;;;27.45;16.83;;;;;;;3.19;71.40;99322.63;10111293;28;20046;-81
2020/12/04 22:31:55;;;;;;;25.60;16.83;;;;;;;3.14;71.99;99326.25;10092622;28;20077;-81
2020/12/04 22:36:51;;;;;;;25.90;16.98;;;;;;;3.10;72.78;99346.84;10108554;28;20047;-81
2020/12/04 22:41:48;;;;;;;26.58;15.77;;;;;;;3.22;72.52;99364.44;10094622;28;20068;-82
2020/12/04 22:46:44;;;;;;;29.52;17.85;;;;;;;3.03;72.79;99357.25;10108982;28;20050;-82
2020/12/04 22:51:40;;;;;;;25.80;16.52;;;;;;;3.03;73.04;99372.66;10086524;28;20047;-82
2020/12/04 22:56:40;;;;;;;29.77;19.20;;;;;;;2.93;73.16;99389.88;10101896;28;20518;-81
2020/12/04 23:01:36;;;;;;;31.75;19.85;;;;;;;2.95;72.83;99436.28;10090707;28;20054;-81
2020/12/04 23:06:34;;;;;;;28.88;17.73;;;;;;;2.90;73.54;99422.84;10100299;28;20054;-80